sensor_id;sensor_type;location;lat;lon;timestamp;pressure;altitude;pressure_sealevel;temperature;humidity
76074;BME280;64776;42.636;24.358;2023-04-15T00:01:17;89434.09;;;3.18;87.72
76074;BME280;64776;42.636;24.358;2023-04-15T00:04:18;89429.56;;;3.18;87.13
76074;BME280;64776;42.636;24.358;2023-04-15T00:07:19;89430.00;;;3.17;87.06
76074;BME280;64776;42.636;24.358;2023-04-15T00:10:19;89436.31;;;3.01;87.20
76074;BME280;64776;42.636;24.358;2023-04-15T00:13:20;89439.84;;;2.98;87.74
76074;BME280;64776;42.636;24.358;2023-04-15T00:16:23;89430.19;;;2.95;87.57
76074;BME280;64776;42.636;24.358;2023-04-15T00:19:23;89431.50;;;3.00;87.56
76074;BME280;64776;42.636;24.358;2023-04-15T00:22:24;89432.81;;;3.04;87.68
76074;BME280;64776;42.636;24.358;2023-04-15T00:25:25;89443.94;;;2.99;87.43
76074;BME280;64776;42.636;24.358;2023-04-15T00:28:26;89442.16;;;3.05;87.34
76074;BME280;64776;42.636;24.358;2023-04-15T00:31:28;89432.97;;;3.01;87.64
76074;BME280;64776;42.636;24.358;2023-04-15T00:34:29;89428.41;;;3.01;87.34
76074;BME280;64776;42.636;24.358;2023-04-15T00:37:30;89430.63;;;3.03;87.35
76074;BME280;64776;42.636;24.358;2023-04-15T00:40:31;89437.06;;;3.02;85.83
76074;BME280;64776;42.636;24.358;2023-04-15T00:43:33;89441.91;;;2.76;87.42
76074;BME280;64776;42.636;24.358;2023-04-15T00:46:37;89446.28;;;2.79;87.60
76074;BME280;64776;42.636;24.358;2023-04-15T00:49:38;89448.91;;;2.70;87.39
76074;BME280;64776;42.636;24.358;2023-04-15T00:52:39;89450.69;;;2.55;87.49
76074;BME280;64776;42.636;24.358;2023-04-15T00:55:39;89446.13;;;2.56;87.69
76074;BME280;64776;42.636;24.358;2023-04-15T00:58:41;89454.22;;;2.61;87.59
76074;BME280;64776;42.636;24.358;2023-04-15T01:01:44;89446.88;;;2.56;87.46
76074;BME280;64776;42.636;24.358;2023-04-15T01:04:45;89446.88;;;2.56;87.54
76074;BME280;64776;42.636;24.358;2023-04-15T01:07:46;89450.81;;;2.52;87.60
76074;BME280;64776;42.636;24.358;2023-04-15T01:10:47;89459.59;;;2.39;87.69
76074;BME280;64776;42.636;24.358;2023-04-15T01:13:48;89449.19;;;2.27;88.25
76074;BME280;64776;42.636;24.358;2023-04-15T01:16:51;89446.56;;;2.18;89.05
76074;BME280;64776;42.636;24.358;2023-04-15T01:19:54;89449.63;;;2.16;89.08
76074;BME280;64776;42.636;24.358;2023-04-15T01:22:58;89451.22;;;2.14;88.73
76074;BME280;64776;42.636;24.358;2023-04-15T01:26:01;89450.63;;;2.19;88.85
76074;BME280;64776;42.636;24.358;2023-04-15T01:29:01;89460.59;;;2.33;88.98
76074;BME280;64776;42.636;24.358;2023-04-15T01:32:02;89456.97;;;2.30;89.22
76074;BME280;64776;42.636;24.358;2023-04-15T01:35:03;89454.44;;;2.27;88.85
76074;BME280;64776;42.636;24.358;2023-04-15T01:38:06;89451.41;;;2.37;88.50
76074;BME280;64776;42.636;24.358;2023-04-15T01:41:08;89449.78;;;2.40;88.37
76074;BME280;64776;42.636;24.358;2023-04-15T01:44:09;89442.78;;;2.28;88.22
76074;BME280;64776;42.636;24.358;2023-04-15T01:47:09;89452.72;;;2.42;87.84
76074;BME280;64776;42.636;24.358;2023-04-15T01:50:10;89452.28;;;2.34;88.47
76074;BME280;64776;42.636;24.358;2023-04-15T01:53:12;89453.88;;;2.32;88.31
76074;BME280;64776;42.636;24.358;2023-04-15T01:56:14;89455.34;;;2.24;88.30
76074;BME280;64776;42.636;24.358;2023-04-15T01:59:15;89455.63;;;2.26;88.45
76074;BME280;64776;42.636;24.358;2023-04-15T02:02:16;89457.97;;;2.24;88.42
76074;BME280;64776;42.636;24.358;2023-04-15T02:05:16;89460.16;;;2.25;88.30
76074;BME280;64776;42.636;24.358;2023-04-15T02:08:17;89449.03;;;2.21;87.77
76074;BME280;64776;42.636;24.358;2023-04-15T02:11:19;89449.00;;;2.12;87.58
76074;BME280;64776;42.636;24.358;2023-04-15T02:14:20;89456.63;;;2.10;87.71
76074;BME280;64776;42.636;24.358;2023-04-15T02:17:21;89460.00;;;2.20;87.66
76074;BME280;64776;42.636;24.358;2023-04-15T02:20:22;89470.06;;;2.03;87.77
76074;BME280;64776;42.636;24.358;2023-04-15T02:23:23;89476.03;;;1.95;88.42
76074;BME280;64776;42.636;24.358;2023-04-15T02:26:25;89476.06;;;2.04;88.43
76074;BME280;64776;42.636;24.358;2023-04-15T02:29:26;89467.41;;;1.94;88.63
76074;BME280;64776;42.636;24.358;2023-04-15T02:32:27;89461.09;;;1.83;88.77
76074;BME280;64776;42.636;24.358;2023-04-15T02:35:28;89462.53;;;1.84;88.53
76074;BME280;64776;42.636;24.358;2023-04-15T02:38:29;89455.53;;;1.90;88.49
76074;BME280;64776;42.636;24.358;2023-04-15T02:41:31;89465.75;;;1.88;88.58
76074;BME280;64776;42.636;24.358;2023-04-15T02:44:32;89469.44;;;1.90;88.66
76074;BME280;64776;42.636;24.358;2023-04-15T02:47:33;89464.59;;;1.89;88.69
76074;BME280;64776;42.636;24.358;2023-04-15T02:50:34;89469.59;;;1.96;88.71
76074;BME280;64776;42.636;24.358;2023-04-15T02:53:35;89468.41;;;1.88;88.68
76074;BME280;64776;42.636;24.358;2023-04-15T02:56:38;89462.53;;;1.84;88.67
76074;BME280;64776;42.636;24.358;2023-04-15T02:59:39;89464.59;;;1.89;88.30
76074;BME280;64776;42.636;24.358;2023-04-15T03:02:39;89466.69;;;1.94;88.29
76074;BME280;64776;42.636;24.358;2023-04-15T03:05:40;89467.41;;;1.94;88.08
76074;BME280;64776;42.636;24.358;2023-04-15T03:08:43;89456.16;;;1.94;88.32
76074;BME280;64776;42.636;24.358;2023-04-15T03:11:45;89466.06;;;1.90;87.55
76074;BME280;64776;42.636;24.358;2023-04-15T03:14:46;89465.16;;;1.75;87.67
76074;BME280;64776;42.636;24.358;2023-04-15T03:17:47;89459.53;;;1.54;88.43
76074;BME280;64776;42.636;24.358;2023-04-15T03:20:48;89460.00;;;1.62;88.18
76074;BME280;64776;42.636;24.358;2023-04-15T03:23:49;89465.88;;;1.44;88.74
76074;BME280;64776;42.636;24.358;2023-04-15T03:26:51;89470.03;;;1.54;88.29
76074;BME280;64776;42.636;24.358;2023-04-15T03:29:53;89473.22;;;1.49;88.31
76074;BME280;64776;42.636;24.358;2023-04-15T03:32:54;89482.75;;;1.25;88.37
76074;BME280;64776;42.636;24.358;2023-04-15T03:35:55;89475.41;;;1.20;89.11
76074;BME280;64776;42.636;24.358;2023-04-15T03:38:56;89490.50;;;1.29;88.48
76074;BME280;64776;42.636;24.358;2023-04-15T03:41:58;89491.59;;;1.19;88.54
76074;BME280;64776;42.636;24.358;2023-04-15T03:44:59;89492.81;;;1.05;88.53
76074;BME280;64776;42.636;24.358;2023-04-15T03:48:00;89494.19;;;0.88;89.16
76074;BME280;64776;42.636;24.358;2023-04-15T03:51:01;89495.09;;;0.94;89.08
76074;BME280;64776;42.636;24.358;2023-04-15T03:54:01;89506.25;;;1.07;89.74
76074;BME280;64776;42.636;24.358;2023-04-15T03:57:04;89502.72;;;1.23;88.99
76074;BME280;64776;42.636;24.358;2023-04-15T04:00:06;89498.81;;;1.27;88.94
76074;BME280;64776;42.636;24.358;2023-04-15T04:03:07;89504.63;;;1.22;88.99
76074;BME280;64776;42.636;24.358;2023-04-15T04:06:08;89511.69;;;1.34;88.40
76074;BME280;64776;42.636;24.358;2023-04-15T04:09:09;89510.22;;;1.33;88.20
76074;BME280;64776;42.636;24.358;2023-04-15T04:12:11;89514.00;;;1.32;88.56
76074;BME280;64776;42.636;24.358;2023-04-15T04:15:12;89521.78;;;1.14;88.90
76074;BME280;64776;42.636;24.358;2023-04-15T04:18:12;89528.88;;;1.26;88.76
76074;BME280;64776;42.636;24.358;2023-04-15T04:21:13;89529.47;;;1.30;88.68
76074;BME280;64776;42.636;24.358;2023-04-15T04:24:14;89532.28;;;1.36;88.24
76074;BME280;64776;42.636;24.358;2023-04-15T04:27:17;89531.28;;;1.42;88.55
76074;BME280;64776;42.636;24.358;2023-04-15T04:30:18;89535.16;;;1.50;88.69
76074;BME280;64776;42.636;24.358;2023-04-15T04:33:19;89529.09;;;1.62;88.87
76074;BME280;64776;42.636;24.358;2023-04-15T04:36:19;89533.91;;;1.64;88.31
76074;BME280;64776;42.636;24.358;2023-04-15T04:39:21;89532.41;;;1.63;87.93
76074;BME280;64776;42.636;24.358;2023-04-15T04:42:24;89542.16;;;1.53;88.23
76074;BME280;64776;42.636;24.358;2023-04-15T04:45:25;89547.78;;;1.64;88.21
76074;BME280;64776;42.636;24.358;2023-04-15T04:48:25;89548.63;;;1.61;88.38
76074;BME280;64776;42.636;24.358;2023-04-15T04:51:26;89550.28;;;1.68;88.33
76074;BME280;64776;42.636;24.358;2023-04-15T04:54:27;89550.16;;;1.72;88.49
76074;BME280;64776;42.636;24.358;2023-04-15T04:57:29;89558.53;;;1.79;88.23
76074;BME280;64776;42.636;24.358;2023-04-15T05:00:30;89564.69;;;1.85;88.17
76074;BME280;64776;42.636;24.358;2023-04-15T05:03:31;89563.72;;;2.01;87.78
76074;BME280;64776;42.636;24.358;2023-04-15T05:06:32;89560.56;;;2.15;87.55
76074;BME280;64776;42.636;24.358;2023-04-15T05:09:33;89563.50;;;2.17;88.62
76074;BME280;64776;42.636;24.358;2023-04-15T05:12:36;89567.69;;;2.45;88.75
76074;BME280;64776;42.636;24.358;2023-04-15T05:15:36;89571.78;;;2.46;88.35
76074;BME280;64776;42.636;24.358;2023-04-15T05:18:37;89560.31;;;2.31;88.81
76074;BME280;64776;42.636;24.358;2023-04-15T05:21:38;89570.03;;;2.43;88.72
76074;BME280;64776;42.636;24.358;2023-04-15T05:24:39;89559.53;;;2.61;89.18
76074;BME280;64776;42.636;24.358;2023-04-15T05:27:41;89551.81;;;2.85;88.86
76074;BME280;64776;42.636;24.358;2023-04-15T05:30:42;89549.63;;;3.10;88.45
76074;BME280;64776;42.636;24.358;2023-04-15T05:33:43;89553.72;;;3.29;88.50
76074;BME280;64776;42.636;24.358;2023-04-15T05:36:44;89547.41;;;3.54;88.05
76074;BME280;64776;42.636;24.358;2023-04-15T05:39:45;89553.63;;;3.84;88.92
76074;BME280;64776;42.636;24.358;2023-04-15T05:42:48;89557.88;;;3.90;88.24
76074;BME280;64776;42.636;24.358;2023-04-15T05:45:48;89559.16;;;4.04;87.65
76074;BME280;64776;42.636;24.358;2023-04-15T05:48:49;89573.63;;;4.18;86.93
76074;BME280;64776;42.636;24.358;2023-04-15T05:51:50;89574.59;;;4.38;87.14
76074;BME280;64776;42.636;24.358;2023-04-15T05:54:51;89566.59;;;4.47;85.91
76074;BME280;64776;42.636;24.358;2023-04-15T05:57:53;89564.25;;;4.82;86.80
76074;BME280;64776;42.636;24.358;2023-04-15T06:00:54;89560.16;;;5.05;85.22
76074;BME280;64776;42.636;24.358;2023-04-15T06:03:55;89571.72;;;5.31;84.94
76074;BME280;64776;42.636;24.358;2023-04-15T06:06:55;89573.78;;;5.65;84.60
76074;BME280;64776;42.636;24.358;2023-04-15T06:09:58;89571.66;;;5.93;85.54
76074;BME280;64776;42.636;24.358;2023-04-15T06:13:00;89578.66;;;6.39;85.32
76074;BME280;64776;42.636;24.358;2023-04-15T06:16:02;89570.84;;;6.80;84.44
76074;BME280;64776;42.636;24.358;2023-04-15T06:19:03;89581.06;;;7.07;83.09
76074;BME280;64776;42.636;24.358;2023-04-15T06:22:04;89581.28;;;7.23;82.83
76074;BME280;64776;42.636;24.358;2023-04-15T06:25:06;89587.38;;;7.29;82.95
76074;BME280;64776;42.636;24.358;2023-04-15T06:28:08;89585.13;;;7.22;82.81
76074;BME280;64776;42.636;24.358;2023-04-15T06:31:09;89585.72;;;7.32;82.51
76074;BME280;64776;42.636;24.358;2023-04-15T06:34:10;89583.44;;;7.05;82.56
76074;BME280;64776;42.636;24.358;2023-04-15T06:37:11;89586.66;;;7.09;82.82
76074;BME280;64776;42.636;24.358;2023-04-15T06:40:12;89579.88;;;7.08;83.51
76074;BME280;64776;42.636;24.358;2023-04-15T06:43:14;89583.88;;;7.18;82.95
76074;BME280;64776;42.636;24.358;2023-04-15T06:46:15;89586.34;;;7.42;82.60
76074;BME280;64776;42.636;24.358;2023-04-15T06:49:16;89587.44;;;7.75;81.67
76074;BME280;64776;42.636;24.358;2023-04-15T06:52:17;89592.56;;;8.04;78.81
76074;BME280;64776;42.636;24.358;2023-04-15T06:55:17;89589.94;;;8.30;74.92
76074;BME280;64776;42.636;24.358;2023-04-15T06:58:20;89582.63;;;8.51;68.24
76074;BME280;64776;42.636;24.358;2023-04-15T07:01:20;89583.38;;;8.88;66.11
76074;BME280;64776;42.636;24.358;2023-04-15T07:04:21;89588.88;;;9.16;64.17
76074;BME280;64776;42.636;24.358;2023-04-15T07:07:22;89592.19;;;9.47;61.95
76074;BME280;64776;42.636;24.358;2023-04-15T07:10:23;89586.94;;;9.69;60.65
76074;BME280;64776;42.636;24.358;2023-04-15T07:13:25;89590.94;;;10.02;59.96
76074;BME280;64776;42.636;24.358;2023-04-15T07:16:26;89597.31;;;10.21;57.52
76074;BME280;64776;42.636;24.358;2023-04-15T07:19:27;89589.34;;;10.37;56.43
76074;BME280;64776;42.636;24.358;2023-04-15T07:22:28;89597.84;;;10.36;57.67
76074;BME280;64776;42.636;24.358;2023-04-15T07:25:28;89601.94;;;10.37;55.83
76074;BME280;64776;42.636;24.358;2023-04-15T07:28:32;89604.31;;;10.13;55.96
76074;BME280;64776;42.636;24.358;2023-04-15T07:31:33;89602.56;;;10.04;56.71
76074;BME280;64776;42.636;24.358;2023-04-15T07:34:33;89608.34;;;9.92;57.19
76074;BME280;64776;42.636;24.358;2023-04-15T07:37:34;89613.91;;;9.94;57.95
76074;BME280;64776;42.636;24.358;2023-04-15T07:40:35;89619.00;;;9.92;57.78
76074;BME280;64776;42.636;24.358;2023-04-15T07:43:37;89621.47;;;10.01;59.51
76074;BME280;64776;42.636;24.358;2023-04-15T07:46:38;89626.53;;;9.99;59.92
76074;BME280;64776;42.636;24.358;2023-04-15T07:49:40;89627.78;;;10.09;58.71
76074;BME280;64776;42.636;24.358;2023-04-15T07:52:41;89625.97;;;10.48;56.74
76074;BME280;64776;42.636;24.358;2023-04-15T07:55:42;89630.34;;;10.62;55.36
76074;BME280;64776;42.636;24.358;2023-04-15T07:58:45;89623.59;;;10.83;53.59
76074;BME280;64776;42.636;24.358;2023-04-15T08:01:46;89617.28;;;11.08;58.06
76074;BME280;64776;42.636;24.358;2023-04-15T08:04:47;89621.13;;;11.40;54.08
76074;BME280;64776;42.636;24.358;2023-04-15T08:07:48;89629.59;;;11.56;54.78
76074;BME280;64776;42.636;24.358;2023-04-15T08:10:49;89627.84;;;11.75;51.85
76074;BME280;64776;42.636;24.358;2023-04-15T08:13:51;89630.94;;;11.95;54.44
76074;BME280;64776;42.636;24.358;2023-04-15T08:16:53;89633.94;;;12.38;53.11
76074;BME280;64776;42.636;24.358;2023-04-15T08:19:54;89628.97;;;12.53;54.73
76074;BME280;64776;42.636;24.358;2023-04-15T08:22:55;89627.63;;;12.76;52.98
76074;BME280;64776;42.636;24.358;2023-04-15T08:25:56;89629.41;;;13.03;52.93
76074;BME280;64776;42.636;24.358;2023-04-15T08:28:58;89625.34;;;13.27;56.25
76074;BME280;64776;42.636;24.358;2023-04-15T08:31:59;89625.19;;;13.14;48.58
76074;BME280;64776;42.636;24.358;2023-04-15T08:35:00;89619.09;;;13.19;52.31
76074;BME280;64776;42.636;24.358;2023-04-15T08:38:01;89619.13;;;13.43;51.72
76074;BME280;64776;42.636;24.358;2023-04-15T08:41:06;89614.28;;;13.36;49.03
76074;BME280;64776;42.636;24.358;2023-04-15T08:44:09;89616.81;;;13.52;49.40
76074;BME280;64776;42.636;24.358;2023-04-15T08:47:12;89619.56;;;13.95;48.51
76074;BME280;64776;42.636;24.358;2023-04-15T08:50:15;89624.81;;;13.82;46.72
76074;BME280;64776;42.636;24.358;2023-04-15T08:53:17;89632.44;;;13.78;46.56
76074;BME280;64776;42.636;24.358;2023-04-15T08:56:18;89627.28;;;13.80;48.50
76074;BME280;64776;42.636;24.358;2023-04-15T08:59:24;89624.81;;;14.06;49.10
76074;BME280;64776;42.636;24.358;2023-04-15T09:02:25;89629.19;;;14.28;48.28
76074;BME280;64776;42.636;24.358;2023-04-15T09:05:26;89630.16;;;14.30;48.81
76074;BME280;64776;42.636;24.358;2023-04-15T09:08:30;89645.88;;;13.97;47.72
76074;BME280;64776;42.636;24.358;2023-04-15T09:11:31;89644.47;;;14.14;48.84
76074;BME280;64776;42.636;24.358;2023-04-15T09:14:34;89645.50;;;14.11;48.86
76074;BME280;64776;42.636;24.358;2023-04-15T09:17:41;89631.63;;;14.07;49.78
76074;BME280;64776;42.636;24.358;2023-04-15T09:20:42;89622.81;;;13.64;47.79
76074;BME280;64776;42.636;24.358;2023-04-15T09:23:54;89630.66;;;13.32;50.78
76074;BME280;64776;42.636;24.358;2023-04-15T09:26:57;89625.88;;;13.20;51.05
76074;BME280;64776;42.636;24.358;2023-04-15T09:29:59;89625.47;;;13.40;49.58
76074;BME280;64776;42.636;24.358;2023-04-15T09:33:01;89615.75;;;13.37;50.39
76074;BME280;64776;42.636;24.358;2023-04-15T09:36:03;89617.41;;;13.16;50.74
76074;BME280;64776;42.636;24.358;2023-04-15T09:39:04;89621.56;;;13.11;48.84
76074;BME280;64776;42.636;24.358;2023-04-15T09:42:06;89620.59;;;13.14;50.30
76074;BME280;64776;42.636;24.358;2023-04-15T09:45:10;89613.75;;;13.43;50.61
76074;BME280;64776;42.636;24.358;2023-04-15T09:48:16;89619.63;;;13.65;50.97
76074;BME280;64776;42.636;24.358;2023-04-15T09:51:18;89611.41;;;13.82;47.94
76074;BME280;64776;42.636;24.358;2023-04-15T09:54:33;89608.50;;;13.80;45.99
76074;BME280;64776;42.636;24.358;2023-04-15T09:57:35;89609.03;;;13.78;47.12
76074;BME280;64776;42.636;24.358;2023-04-15T10:00:38;89616.44;;;13.67;47.41
76074;BME280;64776;42.636;24.358;2023-04-15T10:03:40;89615.16;;;13.73;48.14
76074;BME280;64776;42.636;24.358;2023-04-15T10:06:42;89610.97;;;13.78;47.84
76074;BME280;64776;42.636;24.358;2023-04-15T10:09:43;89609.34;;;13.69;46.91
76074;BME280;64776;42.636;24.358;2023-04-15T10:12:44;89590.97;;;13.79;42.42
76074;BME280;64776;42.636;24.358;2023-04-15T10:15:49;89591.44;;;14.02;42.75
76074;BME280;64776;42.636;24.358;2023-04-15T10:18:54;89598.28;;;14.03;43.00
76074;BME280;64776;42.636;24.358;2023-04-15T10:21:56;89604.22;;;14.14;48.34
76074;BME280;64776;42.636;24.358;2023-04-15T10:24:58;89602.38;;;14.28;48.64
76074;BME280;64776;42.636;24.358;2023-04-15T10:27:59;89605.31;;;14.24;48.35
76074;BME280;64776;42.636;24.358;2023-04-15T10:31:04;89601.47;;;13.77;48.86
76074;BME280;64776;42.636;24.358;2023-04-15T10:34:05;89598.13;;;13.71;47.57
76074;BME280;64776;42.636;24.358;2023-04-15T10:37:08;89588.81;;;13.96;47.82
76074;BME280;64776;42.636;24.358;2023-04-15T10:40:29;89583.75;;;14.35;47.65
76074;BME280;64776;42.636;24.358;2023-04-15T10:43:36;89586.50;;;14.48;44.17
76074;BME280;64776;42.636;24.358;2023-04-15T10:46:39;89573.09;;;14.48;42.03
76074;BME280;64776;42.636;24.358;2023-04-15T10:49:45;89574.59;;;14.62;41.26
76074;BME280;64776;42.636;24.358;2023-04-15T10:52:49;89585.41;;;14.57;43.03
76074;BME280;64776;42.636;24.358;2023-04-15T10:55:50;89583.53;;;14.52;44.12
76074;BME280;64776;42.636;24.358;2023-04-15T10:58:51;89576.84;;;14.77;45.04
76074;BME280;64776;42.636;24.358;2023-04-15T11:01:55;89584.25;;;15.03;45.34
76074;BME280;64776;42.636;24.358;2023-04-15T11:04:57;89582.44;;;14.92;45.34
76074;BME280;64776;42.636;24.358;2023-04-15T11:07:58;89594.63;;;15.12;44.25
76074;BME280;64776;42.636;24.358;2023-04-15T11:10:59;89592.09;;;15.01;44.20
76074;BME280;64776;42.636;24.358;2023-04-15T11:14:01;89591.88;;;14.99;43.46
76074;BME280;64776;42.636;24.358;2023-04-15T11:17:03;89596.19;;;14.89;41.41
76074;BME280;64776;42.636;24.358;2023-04-15T11:20:06;89596.69;;;15.19;42.08
76074;BME280;64776;42.636;24.358;2023-04-15T11:23:07;89595.56;;;15.46;40.67
76074;BME280;64776;42.636;24.358;2023-04-15T11:26:09;89593.84;;;15.88;41.41
76074;BME280;64776;42.636;24.358;2023-04-15T11:29:16;89590.00;;;16.09;40.37
76074;BME280;64776;42.636;24.358;2023-04-15T11:32:20;89597.34;;;16.22;39.66
76074;BME280;64776;42.636;24.358;2023-04-15T11:35:22;89586.91;;;16.05;39.06
76074;BME280;64776;42.636;24.358;2023-04-15T11:38:23;89598.22;;;15.91;39.69
76074;BME280;64776;42.636;24.358;2023-04-15T11:41:24;89597.28;;;15.88;39.97
76074;BME280;64776;42.636;24.358;2023-04-15T11:44:25;89601.91;;;15.88;40.91
76074;BME280;64776;42.636;24.358;2023-04-15T11:47:27;89602.91;;;15.59;44.71
76074;BME280;64776;42.636;24.358;2023-04-15T11:50:31;89594.47;;;15.68;44.27
76074;BME280;64776;42.636;24.358;2023-04-15T11:53:37;89600.44;;;15.61;45.43
76074;BME280;64776;42.636;24.358;2023-04-15T11:56:38;89597.56;;;15.27;46.27
76074;BME280;64776;42.636;24.358;2023-04-15T11:59:45;89591.97;;;15.25;45.70
76074;BME280;64776;42.636;24.358;2023-04-15T12:02:47;89578.00;;;15.71;44.95
76074;BME280;64776;42.636;24.358;2023-04-15T12:06:08;89581.22;;;16.09;45.32
76074;BME280;64776;42.636;24.358;2023-04-15T12:09:10;89578.56;;;16.43;42.63
76074;BME280;64776;42.636;24.358;2023-04-15T12:12:11;89580.41;;;16.74;42.47
76074;BME280;64776;42.636;24.358;2023-04-15T12:15:12;89574.91;;;16.79;43.47
76074;BME280;64776;42.636;24.358;2023-04-15T12:18:18;89574.66;;;16.44;42.07
76074;BME280;64776;42.636;24.358;2023-04-15T12:21:19;89574.91;;;16.06;41.73
76074;BME280;64776;42.636;24.358;2023-04-15T12:24:21;89571.72;;;16.68;41.84
76074;BME280;64776;42.636;24.358;2023-04-15T12:27:25;89568.22;;;16.60;40.95
76074;BME280;64776;42.636;24.358;2023-04-15T12:30:26;89566.59;;;16.30;39.57
76074;BME280;64776;42.636;24.358;2023-04-15T12:33:33;89572.22;;;16.19;39.79
76074;BME280;64776;42.636;24.358;2023-04-15T12:36:34;89570.91;;;16.60;39.55
76074;BME280;64776;42.636;24.358;2023-04-15T12:39:36;89567.63;;;16.87;37.86
76074;BME280;64776;42.636;24.358;2023-04-15T12:42:37;89564.22;;;17.28;36.71
76074;BME280;64776;42.636;24.358;2023-04-15T12:45:38;89574.22;;;17.20;35.93
76074;BME280;64776;42.636;24.358;2023-04-15T12:48:40;89573.06;;;16.95;35.59
76074;BME280;64776;42.636;24.358;2023-04-15T12:51:41;89571.59;;;16.73;35.87
76074;BME280;64776;42.636;24.358;2023-04-15T12:54:42;89579.97;;;16.36;36.62
76074;BME280;64776;42.636;24.358;2023-04-15T12:57:43;89575.94;;;16.16;38.30
76074;BME280;64776;42.636;24.358;2023-04-15T13:00:44;89581.84;;;15.89;38.19
76074;BME280;64776;42.636;24.358;2023-04-15T13:03:48;89576.16;;;15.92;37.36
76074;BME280;64776;42.636;24.358;2023-04-15T13:06:48;89582.69;;;15.97;36.79
76074;BME280;64776;42.636;24.358;2023-04-15T13:09:49;89576.47;;;15.89;37.30
76074;BME280;64776;42.636;24.358;2023-04-15T13:12:51;89577.78;;;15.56;38.03
76074;BME280;64776;42.636;24.358;2023-04-15T13:15:51;89583.69;;;15.81;38.58
76074;BME280;64776;42.636;24.358;2023-04-15T13:18:54;89581.66;;;16.47;36.27
76074;BME280;64776;42.636;24.358;2023-04-15T13:21:54;89576.28;;;16.60;36.13
76074;BME280;64776;42.636;24.358;2023-04-15T13:24:55;89581.47;;;16.71;38.12
76074;BME280;64776;42.636;24.358;2023-04-15T13:27:56;89582.00;;;16.90;37.20
76074;BME280;64776;42.636;24.358;2023-04-15T13:30:57;89589.09;;;16.80;37.19
76074;BME280;64776;42.636;24.358;2023-04-15T13:34:00;89587.72;;;16.86;36.21
76074;BME280;64776;42.636;24.358;2023-04-15T13:37:05;89581.84;;;16.75;36.59
76074;BME280;64776;42.636;24.358;2023-04-15T13:40:08;89584.50;;;16.54;36.22
76074;BME280;64776;42.636;24.358;2023-04-15T13:43:09;89587.44;;;16.77;37.44
76074;BME280;64776;42.636;24.358;2023-04-15T13:46:11;89585.38;;;17.03;37.34
76074;BME280;64776;42.636;24.358;2023-04-15T13:49:13;89575.78;;;16.95;37.38
76074;BME280;64776;42.636;24.358;2023-04-15T13:52:14;89584.81;;;16.84;37.60
76074;BME280;64776;42.636;24.358;2023-04-15T13:55:15;89584.16;;;16.71;36.98
76074;BME280;64776;42.636;24.358;2023-04-15T13:58:15;89584.38;;;16.47;37.48
76074;BME280;64776;42.636;24.358;2023-04-15T14:01:16;89577.75;;;16.35;39.39
76074;BME280;64776;42.636;24.358;2023-04-15T14:04:18;89582.38;;;16.13;39.80
76074;BME280;64776;42.636;24.358;2023-04-15T14:07:19;89580.59;;;15.90;39.36
76074;BME280;64776;42.636;24.358;2023-04-15T14:10:21;89584.00;;;15.77;40.79
76074;BME280;64776;42.636;24.358;2023-04-15T14:13:22;89578.31;;;15.68;40.93
76074;BME280;64776;42.636;24.358;2023-04-15T14:16:23;89577.50;;;15.60;41.32
76074;BME280;64776;42.636;24.358;2023-04-15T14:19:25;89585.25;;;15.63;41.41
76074;BME280;64776;42.636;24.358;2023-04-15T14:22:26;89590.13;;;15.91;41.42
76074;BME280;64776;42.636;24.358;2023-04-15T14:25:27;89578.84;;;15.79;40.64
76074;BME280;64776;42.636;24.358;2023-04-15T14:28:28;89581.72;;;15.81;41.55
76074;BME280;64776;42.636;24.358;2023-04-15T14:31:29;89576.56;;;15.83;40.24
76074;BME280;64776;42.636;24.358;2023-04-15T14:34:31;89574.19;;;15.80;40.67
76074;BME280;64776;42.636;24.358;2023-04-15T14:37:32;89575.91;;;15.51;41.73
76074;BME280;64776;42.636;24.358;2023-04-15T14:40:33;89571.69;;;15.56;41.22
76074;BME280;64776;42.636;24.358;2023-04-15T14:43:34;89572.41;;;15.95;40.22
76074;BME280;64776;42.636;24.358;2023-04-15T14:46:35;89577.31;;;15.97;38.04
76074;BME280;64776;42.636;24.358;2023-04-15T14:49:37;89571.97;;;16.30;39.27
76074;BME280;64776;42.636;24.358;2023-04-15T14:52:38;89574.03;;;16.51;39.88
76074;BME280;64776;42.636;24.358;2023-04-15T14:55:40;89571.03;;;16.28;40.57
76074;BME280;64776;42.636;24.358;2023-04-15T14:58:40;89566.81;;;16.19;39.74
76074;BME280;64776;42.636;24.358;2023-04-15T15:01:41;89564.28;;;16.48;40.07
76074;BME280;64776;42.636;24.358;2023-04-15T15:04:45;89566.38;;;16.42;40.52
76074;BME280;64776;42.636;24.358;2023-04-15T15:07:45;89569.66;;;16.48;40.22
76074;BME280;64776;42.636;24.358;2023-04-15T15:10:46;89568.75;;;16.45;38.94
76074;BME280;64776;42.636;24.358;2023-04-15T15:13:47;89566.97;;;16.48;39.58
76074;BME280;64776;42.636;24.358;2023-04-15T15:16:48;89566.91;;;16.40;38.46
76074;BME280;64776;42.636;24.358;2023-04-15T15:19:50;89570.97;;;15.81;39.48
76074;BME280;64776;42.636;24.358;2023-04-15T15:22:51;89568.91;;;15.87;40.24
76074;BME280;64776;42.636;24.358;2023-04-15T15:25:52;89575.22;;;15.77;39.42
76074;BME280;64776;42.636;24.358;2023-04-15T15:28:52;89575.72;;;15.62;39.32
76074;BME280;64776;42.636;24.358;2023-04-15T15:31:53;89572.63;;;15.84;39.68
76074;BME280;64776;42.636;24.358;2023-04-15T15:34:55;89568.91;;;15.61;41.36
76074;BME280;64776;42.636;24.358;2023-04-15T15:37:56;89568.47;;;15.57;41.32
76074;BME280;64776;42.636;24.358;2023-04-15T15:40:58;89563.00;;;15.50;42.58
76074;BME280;64776;42.636;24.358;2023-04-15T15:43:59;89577.03;;;15.42;43.26
76074;BME280;64776;42.636;24.358;2023-04-15T15:47:00;89573.38;;;15.40;43.08
76074;BME280;64776;42.636;24.358;2023-04-15T15:50:03;89571.63;;;14.98;43.41
76074;BME280;64776;42.636;24.358;2023-04-15T15:53:04;89568.19;;;14.65;43.71
76074;BME280;64776;42.636;24.358;2023-04-15T15:56:05;89576.34;;;14.60;43.89